sensor_id;sensor_type;location;lat;lon;timestamp;P1;durP1;ratioP1;P2;durP2;ratioP2
15567;SDS011;7885;42.596;23.044;2023-05-29T00:01:51;4.10;;;3.70;;
15567;SDS011;7885;42.596;23.044;2023-05-29T00:04:18;5.40;;;4.00;;
15567;SDS011;7885;42.596;23.044;2023-05-29T00:06:46;4.73;;;3.87;;
15567;SDS011;7885;42.596;23.044;2023-05-29T00:09:14;4.80;;;3.70;;
15567;SDS011;7885;42.596;23.044;2023-05-29T00:11:41;5.30;;;4.10;;
15567;SDS011;7885;42.596;23.044;2023-05-29T00:14:08;14.37;;;4.63;;
15567;SDS011;7885;42.596;23.044;2023-05-29T00:16:37;95.97;;;9.63;;
15567;SDS011;7885;42.596;23.044;2023-05-29T00:19:04;6.33;;;4.27;;
15567;SDS011;7885;42.596;23.044;2023-05-29T00:21:31;5.40;;;3.77;;
15567;SDS011;7885;42.596;23.044;2023-05-29T00:23:58;4.87;;;3.27;;
15567;SDS011;7885;42.596;23.044;2023-05-29T00:26:26;8.60;;;4.00;;
15567;SDS011;7885;42.596;23.044;2023-05-29T00:28:52;4.63;;;3.67;;
15567;SDS011;7885;42.596;23.044;2023-05-29T00:31:19;4.03;;;3.43;;
15567;SDS011;7885;42.596;23.044;2023-05-29T00:33:46;4.90;;;3.70;;
15567;SDS011;7885;42.596;23.044;2023-05-29T00:36:13;4.40;;;3.90;;
15567;SDS011;7885;42.596;23.044;2023-05-29T00:38:39;3.90;;;3.60;;
15567;SDS011;7885;42.596;23.044;2023-05-29T00:41:06;4.77;;;3.80;;
15567;SDS011;7885;42.596;23.044;2023-05-29T00:43:34;4.20;;;3.80;;
15567;SDS011;7885;42.596;23.044;2023-05-29T00:46:01;4.40;;;3.80;;
15567;SDS011;7885;42.596;23.044;2023-05-29T00:48:27;4.57;;;3.73;;
15567;SDS011;7885;42.596;23.044;2023-05-29T00:50:54;5.83;;;3.80;;
15567;SDS011;7885;42.596;23.044;2023-05-29T00:53:21;5.10;;;3.77;;
15567;SDS011;7885;42.596;23.044;2023-05-29T00:55:49;4.17;;;3.77;;
15567;SDS011;7885;42.596;23.044;2023-05-29T00:58:17;4.67;;;4.17;;
15567;SDS011;7885;42.596;23.044;2023-05-29T01:00:45;4.80;;;4.13;;
15567;SDS011;7885;42.596;23.044;2023-05-29T01:03:12;4.57;;;4.17;;
15567;SDS011;7885;42.596;23.044;2023-05-29T01:05:42;5.87;;;3.90;;
15567;SDS011;7885;42.596;23.044;2023-05-29T01:08:08;7.20;;;4.60;;
15567;SDS011;7885;42.596;23.044;2023-05-29T01:10:36;5.97;;;3.97;;
15567;SDS011;7885;42.596;23.044;2023-05-29T01:13:03;4.63;;;4.20;;
15567;SDS011;7885;42.596;23.044;2023-05-29T01:15:37;5.07;;;4.20;;
15567;SDS011;7885;42.596;23.044;2023-05-29T01:18:15;4.83;;;4.00;;
15567;SDS011;7885;42.596;23.044;2023-05-29T01:20:50;4.90;;;4.50;;
15567;SDS011;7885;42.596;23.044;2023-05-29T01:26:22;4.90;;;4.40;;
15567;SDS011;7885;42.596;23.044;2023-05-29T01:29:06;5.50;;;4.60;;
15567;SDS011;7885;42.596;23.044;2023-05-29T01:31:34;4.80;;;4.23;;
15567;SDS011;7885;42.596;23.044;2023-05-29T01:34:02;5.00;;;4.40;;
15567;SDS011;7885;42.596;23.044;2023-05-29T01:36:28;6.37;;;4.63;;
15567;SDS011;7885;42.596;23.044;2023-05-29T01:38:56;5.80;;;4.63;;
15567;SDS011;7885;42.596;23.044;2023-05-29T01:41:24;4.50;;;4.10;;
15567;SDS011;7885;42.596;23.044;2023-05-29T01:43:54;5.13;;;4.47;;
15567;SDS011;7885;42.596;23.044;2023-05-29T01:46:22;4.60;;;4.10;;
15567;SDS011;7885;42.596;23.044;2023-05-29T01:48:50;5.03;;;4.37;;
15567;SDS011;7885;42.596;23.044;2023-05-29T01:51:17;4.90;;;4.47;;
15567;SDS011;7885;42.596;23.044;2023-05-29T01:53:44;4.83;;;4.37;;
15567;SDS011;7885;42.596;23.044;2023-05-29T01:56:11;6.33;;;4.80;;
15567;SDS011;7885;42.596;23.044;2023-05-29T01:58:38;4.70;;;4.30;;
15567;SDS011;7885;42.596;23.044;2023-05-29T02:01:07;6.10;;;4.87;;
15567;SDS011;7885;42.596;23.044;2023-05-29T02:03:35;7.70;;;4.90;;
15567;SDS011;7885;42.596;23.044;2023-05-29T02:06:01;5.40;;;4.90;;
15567;SDS011;7885;42.596;23.044;2023-05-29T02:08:28;5.13;;;4.50;;
15567;SDS011;7885;42.596;23.044;2023-05-29T02:10:55;5.63;;;4.60;;
15567;SDS011;7885;42.596;23.044;2023-05-29T02:13:22;5.77;;;4.80;;
15567;SDS011;7885;42.596;23.044;2023-05-29T02:15:48;5.17;;;4.60;;
15567;SDS011;7885;42.596;23.044;2023-05-29T02:18:16;8.03;;;5.27;;
15567;SDS011;7885;42.596;23.044;2023-05-29T02:20:44;5.43;;;4.40;;
15567;SDS011;7885;42.596;23.044;2023-05-29T02:23:11;6.40;;;4.97;;
15567;SDS011;7885;42.596;23.044;2023-05-29T02:25:38;5.10;;;4.53;;
15567;SDS011;7885;42.596;23.044;2023-05-29T02:28:05;7.20;;;5.10;;
15567;SDS011;7885;42.596;23.044;2023-05-29T02:30:32;6.37;;;4.90;;
15567;SDS011;7885;42.596;23.044;2023-05-29T02:32:59;5.07;;;4.57;;
15567;SDS011;7885;42.596;23.044;2023-05-29T02:35:27;6.03;;;5.17;;
15567;SDS011;7885;42.596;23.044;2023-05-29T02:37:54;5.40;;;4.93;;
15567;SDS011;7885;42.596;23.044;2023-05-29T02:40:20;7.47;;;5.77;;
15567;SDS011;7885;42.596;23.044;2023-05-29T02:42:48;7.20;;;5.90;;
15567;SDS011;7885;42.596;23.044;2023-05-29T02:45:15;7.40;;;4.83;;
15567;SDS011;7885;42.596;23.044;2023-05-29T02:47:42;6.27;;;5.33;;
15567;SDS011;7885;42.596;23.044;2023-05-29T02:50:09;6.47;;;5.47;;
15567;SDS011;7885;42.596;23.044;2023-05-29T02:52:38;6.53;;;5.73;;
15567;SDS011;7885;42.596;23.044;2023-05-29T02:55:05;8.80;;;5.37;;
15567;SDS011;7885;42.596;23.044;2023-05-29T02:57:32;5.87;;;5.27;;
15567;SDS011;7885;42.596;23.044;2023-05-29T02:59:58;5.77;;;5.17;;
15567;SDS011;7885;42.596;23.044;2023-05-29T03:02:25;5.53;;;4.80;;
15567;SDS011;7885;42.596;23.044;2023-05-29T03:04:52;6.77;;;4.97;;
15567;SDS011;7885;42.596;23.044;2023-05-29T03:07:19;6.43;;;5.00;;
15567;SDS011;7885;42.596;23.044;2023-05-29T03:09:48;4.90;;;4.40;;
15567;SDS011;7885;42.596;23.044;2023-05-29T03:12:15;5.17;;;4.67;;
15567;SDS011;7885;42.596;23.044;2023-05-29T03:14:43;8.87;;;6.87;;
15567;SDS011;7885;42.596;23.044;2023-05-29T03:17:10;6.60;;;5.10;;
15567;SDS011;7885;42.596;23.044;2023-05-29T03:19:37;7.77;;;5.13;;
15567;SDS011;7885;42.596;23.044;2023-05-29T03:22:04;5.50;;;5.00;;
15567;SDS011;7885;42.596;23.044;2023-05-29T03:24:31;7.73;;;6.00;;
15567;SDS011;7885;42.596;23.044;2023-05-29T03:27:01;7.20;;;5.70;;
15567;SDS011;7885;42.596;23.044;2023-05-29T03:29:30;6.10;;;5.50;;
15567;SDS011;7885;42.596;23.044;2023-05-29T03:31:57;5.80;;;5.20;;
15567;SDS011;7885;42.596;23.044;2023-05-29T03:34:24;6.87;;;5.47;;
15567;SDS011;7885;42.596;23.044;2023-05-29T03:36:51;7.00;;;5.67;;
15567;SDS011;7885;42.596;23.044;2023-05-29T03:39:18;5.80;;;5.23;;
15567;SDS011;7885;42.596;23.044;2023-05-29T03:41:45;8.17;;;5.37;;
15567;SDS011;7885;42.596;23.044;2023-05-29T03:44:13;7.17;;;5.40;;
15567;SDS011;7885;42.596;23.044;2023-05-29T03:46:40;6.57;;;5.03;;
15567;SDS011;7885;42.596;23.044;2023-05-29T03:49:06;6.40;;;5.67;;
15567;SDS011;7885;42.596;23.044;2023-05-29T03:51:33;6.33;;;4.97;;
15567;SDS011;7885;42.596;23.044;2023-05-29T03:54:00;6.13;;;5.50;;
15567;SDS011;7885;42.596;23.044;2023-05-29T03:56:27;6.60;;;5.90;;
15567;SDS011;7885;42.596;23.044;2023-05-29T03:58:54;6.50;;;5.73;;
15567;SDS011;7885;42.596;23.044;2023-05-29T04:01:22;6.57;;;5.97;;
15567;SDS011;7885;42.596;23.044;2023-05-29T04:03:49;6.67;;;5.90;;
15567;SDS011;7885;42.596;23.044;2023-05-29T04:06:16;6.37;;;5.77;;
15567;SDS011;7885;42.596;23.044;2023-05-29T04:08:42;6.53;;;5.27;;
15567;SDS011;7885;42.596;23.044;2023-05-29T04:11:09;5.83;;;5.20;;
15567;SDS011;7885;42.596;23.044;2023-05-29T04:13:38;5.63;;;5.00;;
15567;SDS011;7885;42.596;23.044;2023-05-29T04:16:06;7.47;;;5.10;;
15567;SDS011;7885;42.596;23.044;2023-05-29T04:18:35;5.90;;;5.30;;
15567;SDS011;7885;42.596;23.044;2023-05-29T04:21:01;6.27;;;5.43;;
15567;SDS011;7885;42.596;23.044;2023-05-29T04:23:28;6.60;;;5.43;;
15567;SDS011;7885;42.596;23.044;2023-05-29T04:25:55;5.90;;;5.30;;
15567;SDS011;7885;42.596;23.044;2023-05-29T04:28:22;6.23;;;5.60;;
15567;SDS011;7885;42.596;23.044;2023-05-29T04:30:49;5.80;;;5.17;;
15567;SDS011;7885;42.596;23.044;2023-05-29T04:33:17;6.53;;;5.70;;
15567;SDS011;7885;42.596;23.044;2023-05-29T04:35:47;7.43;;;6.17;;
15567;SDS011;7885;42.596;23.044;2023-05-29T04:38:14;6.53;;;5.27;;
15567;SDS011;7885;42.596;23.044;2023-05-29T04:40:41;7.70;;;5.70;;
15567;SDS011;7885;42.596;23.044;2023-05-29T04:43:09;7.30;;;5.43;;
15567;SDS011;7885;42.596;23.044;2023-05-29T04:45:36;10.70;;;6.20;;
15567;SDS011;7885;42.596;23.044;2023-05-29T04:48:03;7.20;;;5.27;;
15567;SDS011;7885;42.596;23.044;2023-05-29T04:50:29;8.03;;;6.80;;
15567;SDS011;7885;42.596;23.044;2023-05-29T04:52:58;7.33;;;5.50;;
15567;SDS011;7885;42.596;23.044;2023-05-29T04:55:25;6.50;;;4.90;;
15567;SDS011;7885;42.596;23.044;2023-05-29T04:57:52;5.10;;;4.57;;
15567;SDS011;7885;42.596;23.044;2023-05-29T05:00:19;7.83;;;5.20;;
15567;SDS011;7885;42.596;23.044;2023-05-29T05:02:47;8.63;;;4.80;;
15567;SDS011;7885;42.596;23.044;2023-05-29T05:05:14;7.80;;;4.70;;
15567;SDS011;7885;42.596;23.044;2023-05-29T05:07:40;5.37;;;4.73;;
15567;SDS011;7885;42.596;23.044;2023-05-29T05:10:09;6.97;;;4.20;;
15567;SDS011;7885;42.596;23.044;2023-05-29T05:12:36;7.00;;;5.30;;
15567;SDS011;7885;42.596;23.044;2023-05-29T05:15:04;6.20;;;4.40;;
15567;SDS011;7885;42.596;23.044;2023-05-29T05:17:31;5.20;;;4.70;;
15567;SDS011;7885;42.596;23.044;2023-05-29T05:19:58;7.20;;;4.40;;
15567;SDS011;7885;42.596;23.044;2023-05-29T05:22:24;7.60;;;4.30;;
15567;SDS011;7885;42.596;23.044;2023-05-29T05:24:51;7.90;;;4.20;;
15567;SDS011;7885;42.596;23.044;2023-05-29T05:27:20;6.43;;;3.90;;
15567;SDS011;7885;42.596;23.044;2023-05-29T05:29:47;6.90;;;3.83;;
15567;SDS011;7885;42.596;23.044;2023-05-29T05:32:14;4.93;;;3.27;;
15567;SDS011;7885;42.596;23.044;2023-05-29T05:34:41;5.40;;;3.20;;
15567;SDS011;7885;42.596;23.044;2023-05-29T05:37:07;6.57;;;3.93;;
15567;SDS011;7885;42.596;23.044;2023-05-29T05:39:35;7.80;;;3.47;;
15567;SDS011;7885;42.596;23.044;2023-05-29T05:42:01;7.13;;;3.57;;
15567;SDS011;7885;42.596;23.044;2023-05-29T05:44:29;8.63;;;5.07;;
15567;SDS011;7885;42.596;23.044;2023-05-29T05:46:56;8.83;;;4.10;;
15567;SDS011;7885;42.596;23.044;2023-05-29T05:49:23;8.73;;;5.10;;
15567;SDS011;7885;42.596;23.044;2023-05-29T05:51:50;7.07;;;4.27;;
15567;SDS011;7885;42.596;23.044;2023-05-29T05:54:17;5.50;;;4.23;;
15567;SDS011;7885;42.596;23.044;2023-05-29T05:56:43;5.20;;;4.67;;
15567;SDS011;7885;42.596;23.044;2023-05-29T05:59:10;5.17;;;4.40;;
15567;SDS011;7885;42.596;23.044;2023-05-29T06:01:38;5.93;;;3.90;;
15567;SDS011;7885;42.596;23.044;2023-05-29T06:04:06;6.50;;;4.40;;
15567;SDS011;7885;42.596;23.044;2023-05-29T06:06:33;6.30;;;4.50;;
15567;SDS011;7885;42.596;23.044;2023-05-29T06:09:00;7.30;;;4.70;;
15567;SDS011;7885;42.596;23.044;2023-05-29T06:11:27;12.37;;;4.60;;
15567;SDS011;7885;42.596;23.044;2023-05-29T06:13:54;5.33;;;3.90;;
15567;SDS011;7885;42.596;23.044;2023-05-29T06:16:21;8.83;;;4.13;;
15567;SDS011;7885;42.596;23.044;2023-05-29T06:18:49;10.87;;;4.20;;
15567;SDS011;7885;42.596;23.044;2023-05-29T06:21:16;11.47;;;4.00;;
15567;SDS011;7885;42.596;23.044;2023-05-29T06:23:43;8.10;;;3.63;;
15567;SDS011;7885;42.596;23.044;2023-05-29T06:26:09;5.73;;;2.97;;
15567;SDS011;7885;42.596;23.044;2023-05-29T06:28:37;4.43;;;2.93;;
15567;SDS011;7885;42.596;23.044;2023-05-29T06:31:04;6.23;;;2.83;;
15567;SDS011;7885;42.596;23.044;2023-05-29T06:33:31;4.17;;;2.73;;
15567;SDS011;7885;42.596;23.044;2023-05-29T06:35:59;3.30;;;3.00;;
15567;SDS011;7885;42.596;23.044;2023-05-29T06:38:26;4.33;;;2.97;;
15567;SDS011;7885;42.596;23.044;2023-05-29T06:40:53;5.03;;;3.23;;
15567;SDS011;7885;42.596;23.044;2023-05-29T06:43:19;3.03;;;2.80;;
15567;SDS011;7885;42.596;23.044;2023-05-29T06:45:46;3.40;;;3.10;;
15567;SDS011;7885;42.596;23.044;2023-05-29T06:48:13;3.80;;;2.50;;
15567;SDS011;7885;42.596;23.044;2023-05-29T06:50:40;3.73;;;2.73;;
15567;SDS011;7885;42.596;23.044;2023-05-29T06:53:08;2.83;;;2.20;;
15567;SDS011;7885;42.596;23.044;2023-05-29T06:55:35;4.30;;;2.67;;
15567;SDS011;7885;42.596;23.044;2023-05-29T06:58:01;3.60;;;2.30;;
15567;SDS011;7885;42.596;23.044;2023-05-29T07:00:28;6.27;;;2.10;;
15567;SDS011;7885;42.596;23.044;2023-05-29T07:02:55;2.33;;;1.93;;
15567;SDS011;7885;42.596;23.044;2023-05-29T07:05:21;4.17;;;1.97;;
15567;SDS011;7885;42.596;23.044;2023-05-29T07:07:48;4.60;;;1.73;;
15567;SDS011;7885;42.596;23.044;2023-05-29T07:10:16;2.10;;;1.90;;
15567;SDS011;7885;42.596;23.044;2023-05-29T07:12:43;2.30;;;1.80;;
15567;SDS011;7885;42.596;23.044;2023-05-29T07:15:10;1.60;;;1.50;;
15567;SDS011;7885;42.596;23.044;2023-05-29T07:17:37;1.67;;;1.50;;
15567;SDS011;7885;42.596;23.044;2023-05-29T07:20:04;2.73;;;1.60;;
15567;SDS011;7885;42.596;23.044;2023-05-29T07:22:32;2.13;;;1.60;;
15567;SDS011;7885;42.596;23.044;2023-05-29T07:24:59;4.43;;;1.60;;
15567;SDS011;7885;42.596;23.044;2023-05-29T07:27:27;3.17;;;1.20;;
15567;SDS011;7885;42.596;23.044;2023-05-29T07:29:54;2.23;;;1.50;;
15567;SDS011;7885;42.596;23.044;2023-05-29T07:32:21;1.67;;;1.20;;
15567;SDS011;7885;42.596;23.044;2023-05-29T07:34:47;4.37;;;1.40;;
15567;SDS011;7885;42.596;23.044;2023-05-29T07:37:15;1.80;;;1.20;;
15567;SDS011;7885;42.596;23.044;2023-05-29T07:39:44;1.80;;;1.20;;
15567;SDS011;7885;42.596;23.044;2023-05-29T07:42:10;2.97;;;1.60;;
15567;SDS011;7885;42.596;23.044;2023-05-29T07:44:38;2.23;;;1.60;;
15567;SDS011;7885;42.596;23.044;2023-05-29T07:47:07;1.73;;;1.60;;
15567;SDS011;7885;42.596;23.044;2023-05-29T07:49:33;1.77;;;1.47;;
15567;SDS011;7885;42.596;23.044;2023-05-29T07:52:00;2.33;;;1.90;;
15567;SDS011;7885;42.596;23.044;2023-05-29T07:54:27;3.27;;;1.80;;
15567;SDS011;7885;42.596;23.044;2023-05-29T07:56:54;3.20;;;1.90;;
15567;SDS011;7885;42.596;23.044;2023-05-29T07:59:21;1.63;;;1.47;;
15567;SDS011;7885;42.596;23.044;2023-05-29T08:01:49;3.47;;;2.00;;
15567;SDS011;7885;42.596;23.044;2023-05-29T08:04:16;5.57;;;2.03;;
15567;SDS011;7885;42.596;23.044;2023-05-29T08:06:43;2.27;;;1.90;;
15567;SDS011;7885;42.596;23.044;2023-05-29T08:09:10;2.23;;;1.83;;
15567;SDS011;7885;42.596;23.044;2023-05-29T08:11:37;4.07;;;1.80;;
15567;SDS011;7885;42.596;23.044;2023-05-29T08:14:03;2.57;;;1.97;;
15567;SDS011;7885;42.596;23.044;2023-05-29T08:16:30;2.23;;;1.80;;
15567;SDS011;7885;42.596;23.044;2023-05-29T08:18:59;2.43;;;2.23;;
15567;SDS011;7885;42.596;23.044;2023-05-29T08:21:25;2.90;;;2.20;;
15567;SDS011;7885;42.596;23.044;2023-05-29T08:23:52;2.27;;;2.07;;
15567;SDS011;7885;42.596;23.044;2023-05-29T08:26:19;5.23;;;2.23;;
15567;SDS011;7885;42.596;23.044;2023-05-29T08:28:46;3.43;;;2.00;;
15567;SDS011;7885;42.596;23.044;2023-05-29T08:31:12;3.53;;;2.20;;
15567;SDS011;7885;42.596;23.044;2023-05-29T08:33:39;3.20;;;2.40;;
15567;SDS011;7885;42.596;23.044;2023-05-29T08:36:07;3.30;;;2.53;;
15567;SDS011;7885;42.596;23.044;2023-05-29T08:38:34;4.67;;;2.47;;
15567;SDS011;7885;42.596;23.044;2023-05-29T08:41:01;5.03;;;2.53;;
15567;SDS011;7885;42.596;23.044;2023-05-29T08:43:29;4.63;;;2.47;;
15567;SDS011;7885;42.596;23.044;2023-05-29T08:45:59;3.50;;;2.07;;
15567;SDS011;7885;42.596;23.044;2023-05-29T08:48:27;2.83;;;2.53;;
15567;SDS011;7885;42.596;23.044;2023-05-29T08:50:56;2.70;;;2.10;;
15567;SDS011;7885;42.596;23.044;2023-05-29T08:53:26;5.40;;;2.37;;
15567;SDS011;7885;42.596;23.044;2023-05-29T08:55:52;6.20;;;2.13;;
15567;SDS011;7885;42.596;23.044;2023-05-29T08:58:21;4.90;;;2.40;;
15567;SDS011;7885;42.596;23.044;2023-05-29T09:00:48;3.73;;;2.30;;
15567;SDS011;7885;42.596;23.044;2023-05-29T09:03:16;2.43;;;2.20;;
15567;SDS011;7885;42.596;23.044;2023-05-29T09:05:45;3.63;;;2.30;;
15567;SDS011;7885;42.596;23.044;2023-05-29T09:08:12;3.07;;;2.10;;
15567;SDS011;7885;42.596;23.044;2023-05-29T09:10:41;3.10;;;2.20;;
15567;SDS011;7885;42.596;23.044;2023-05-29T09:13:08;3.10;;;2.33;;
15567;SDS011;7885;42.596;23.044;2023-05-29T09:15:36;3.33;;;2.10;;
15567;SDS011;7885;42.596;23.044;2023-05-29T09:18:05;3.40;;;2.20;;
15567;SDS011;7885;42.596;23.044;2023-05-29T09:20:32;2.67;;;2.47;;
15567;SDS011;7885;42.596;23.044;2023-05-29T09:23:00;4.60;;;2.30;;
15567;SDS011;7885;42.596;23.044;2023-05-29T09:25:28;3.43;;;2.27;;
15567;SDS011;7885;42.596;23.044;2023-05-29T09:27:57;4.53;;;2.30;;
15567;SDS011;7885;42.596;23.044;2023-05-29T09:30:32;5.50;;;2.60;;
15567;SDS011;7885;42.596;23.044;2023-05-29T09:33:10;2.83;;;2.53;;
15567;SDS011;7885;42.596;23.044;2023-05-29T09:35:38;5.17;;;2.60;;
15567;SDS011;7885;42.596;23.044;2023-05-29T09:38:06;4.23;;;2.23;;
15567;SDS011;7885;42.596;23.044;2023-05-29T09:40:34;3.87;;;2.40;;
15567;SDS011;7885;42.596;23.044;2023-05-29T09:43:04;2.93;;;2.20;;
15567;SDS011;7885;42.596;23.044;2023-05-29T09:45:32;5.90;;;2.00;;
15567;SDS011;7885;42.596;23.044;2023-05-29T09:48:02;2.67;;;1.90;;
15567;SDS011;7885;42.596;23.044;2023-05-29T09:50:30;2.60;;;2.20;;
15567;SDS011;7885;42.596;23.044;2023-05-29T09:52:58;4.37;;;2.83;;
15567;SDS011;7885;42.596;23.044;2023-05-29T09:55:26;5.13;;;2.30;;
15567;SDS011;7885;42.596;23.044;2023-05-29T09:57:54;4.33;;;2.30;;
15567;SDS011;7885;42.596;23.044;2023-05-29T10:00:21;3.93;;;2.50;;
15567;SDS011;7885;42.596;23.044;2023-05-29T10:02:48;4.03;;;2.60;;
15567;SDS011;7885;42.596;23.044;2023-05-29T10:05:15;2.80;;;2.43;;
15567;SDS011;7885;42.596;23.044;2023-05-29T10:07:44;3.10;;;2.27;;
15567;SDS011;7885;42.596;23.044;2023-05-29T10:10:13;4.20;;;2.50;;
15567;SDS011;7885;42.596;23.044;2023-05-29T10:12:43;5.10;;;2.30;;
15567;SDS011;7885;42.596;23.044;2023-05-29T10:15:11;3.70;;;2.30;;
15567;SDS011;7885;42.596;23.044;2023-05-29T10:17:39;4.33;;;2.47;;
15567;SDS011;7885;42.596;23.044;2023-05-29T10:20:15;7.17;;;2.50;;
15567;SDS011;7885;42.596;23.044;2023-05-29T10:22:45;3.83;;;2.30;;
15567;SDS011;7885;42.596;23.044;2023-05-29T10:25:14;4.17;;;2.93;;
15567;SDS011;7885;42.596;23.044;2023-05-29T10:27:44;3.53;;;2.40;;
15567;SDS011;7885;42.596;23.044;2023-05-29T10:30:12;3.40;;;2.37;;
15567;SDS011;7885;42.596;23.044;2023-05-29T10:32:52;4.13;;;2.57;;
15567;SDS011;7885;42.596;23.044;2023-05-29T10:35:31;3.67;;;2.33;;
15567;SDS011;7885;42.596;23.044;2023-05-29T10:38:11;5.70;;;2.00;;
15567;SDS011;7885;42.596;23.044;2023-05-29T10:40:40;3.97;;;2.53;;
15567;SDS011;7885;42.596;23.044;2023-05-29T10:43:07;6.70;;;2.97;;
15567;SDS011;7885;42.596;23.044;2023-05-29T10:45:48;3.40;;;2.40;;
15567;SDS011;7885;42.596;23.044;2023-05-29T10:48:37;5.40;;;2.77;;
15567;SDS011;7885;42.596;23.044;2023-05-29T10:51:08;3.33;;;2.30;;
15567;SDS011;7885;42.596;23.044;2023-05-29T10:53:51;2.97;;;2.70;;
15567;SDS011;7885;42.596;23.044;2023-05-29T10:56:20;4.73;;;2.70;;
15567;SDS011;7885;42.596;23.044;2023-05-29T10:58:52;7.00;;;3.00;;
15567;SDS011;7885;42.596;23.044;2023-05-29T11:01:20;6.72;;;2.85;;
15567;SDS011;7885;42.596;23.044;2023-05-29T11:03:48;5.63;;;2.53;;
15567;SDS011;7885;42.596;23.044;2023-05-29T11:06:18;3.33;;;2.87;;
15567;SDS011;7885;42.596;23.044;2023-05-29T11:08:46;3.90;;;2.70;;
15567;SDS011;7885;42.596;23.044;2023-05-29T11:11:15;3.03;;;2.50;;
15567;SDS011;7885;42.596;23.044;2023-05-29T11:13:55;5.73;;;2.57;;
15567;SDS011;7885;42.596;23.044;2023-05-29T11:16:35;5.43;;;2.53;;
15567;SDS011;7885;42.596;23.044;2023-05-29T11:19:06;2.90;;;2.30;;
15567;SDS011;7885;42.596;23.044;2023-05-29T11:21:41;6.47;;;2.60;;
15567;SDS011;7885;42.596;23.044;2023-05-29T11:24:18;3.83;;;2.60;;
15567;SDS011;7885;42.596;23.044;2023-05-29T11:26:50;6.37;;;3.10;;
15567;SDS011;7885;42.596;23.044;2023-05-29T11:29:20;3.70;;;2.83;;
15567;SDS011;7885;42.596;23.044;2023-05-29T11:31:49;5.73;;;3.30;;
15567;SDS011;7885;42.596;23.044;2023-05-29T11:34:21;6.50;;;2.93;;
15567;SDS011;7885;42.596;23.044;2023-05-29T11:36:51;8.00;;;3.23;;
15567;SDS011;7885;42.596;23.044;2023-05-29T11:39:18;3.20;;;2.53;;
15567;SDS011;7885;42.596;23.044;2023-05-29T11:41:46;3.30;;;2.70;;
15567;SDS011;7885;42.596;23.044;2023-05-29T11:44:18;8.43;;;2.93;;
15567;SDS011;7885;42.596;23.044;2023-05-29T11:46:45;5.00;;;2.80;;
15567;SDS011;7885;42.596;23.044;2023-05-29T11:49:12;4.10;;;2.93;;
15567;SDS011;7885;42.596;23.044;2023-05-29T11:51:41;5.57;;;2.90;;
15567;SDS011;7885;42.596;23.044;2023-05-29T11:54:11;6.83;;;3.00;;
15567;SDS011;7885;42.596;23.044;2023-05-29T11:56:38;3.93;;;3.07;;
15567;SDS011;7885;42.596;23.044;2023-05-29T11:59:10;8.87;;;3.00;;
15567;SDS011;7885;42.596;23.044;2023-05-29T12:01:37;5.28;;;3.08;;
15567;SDS011;7885;42.596;23.044;2023-05-29T12:04:13;5.18;;;3.25;;
15567;SDS011;7885;42.596;23.044;2023-05-29T12:06:41;4.53;;;3.20;;
15567;SDS011;7885;42.596;23.044;2023-05-29T12:09:07;6.28;;;3.22;;
15567;SDS011;7885;42.596;23.044;2023-05-29T12:11:34;4.57;;;2.92;;
15567;SDS011;7885;42.596;23.044;2023-05-29T12:14:01;5.40;;;3.05;;
15567;SDS011;7885;42.596;23.044;2023-05-29T12:16:30;4.40;;;3.15;;
15567;SDS011;7885;42.596;23.044;2023-05-29T12:18:59;5.15;;;3.10;;
15567;SDS011;7885;42.596;23.044;2023-05-29T12:21:26;6.43;;;3.13;;
15567;SDS011;7885;42.596;23.044;2023-05-29T12:23:53;8.75;;;3.03;;
15567;SDS011;7885;42.596;23.044;2023-05-29T12:26:21;3.28;;;2.80;;
15567;SDS011;7885;42.596;23.044;2023-05-29T12:28:51;3.55;;;3.00;;
15567;SDS011;7885;42.596;23.044;2023-05-29T12:31:27;5.28;;;2.95;;
15567;SDS011;7885;42.596;23.044;2023-05-29T12:33:59;3.47;;;2.58;;
15567;SDS011;7885;42.596;23.044;2023-05-29T12:36:27;3.40;;;3.10;;
15567;SDS011;7885;42.596;23.044;2023-05-29T12:38:54;6.15;;;2.80;;
15567;SDS011;7885;42.596;23.044;2023-05-29T12:41:26;5.85;;;2.92;;
15567;SDS011;7885;42.596;23.044;2023-05-29T12:43:54;2.60;;;2.40;;
15567;SDS011;7885;42.596;23.044;2023-05-29T12:46:22;5.25;;;2.97;;
15567;SDS011;7885;42.596;23.044;2023-05-29T12:48:51;5.10;;;3.05;;
15567;SDS011;7885;42.596;23.044;2023-05-29T12:51:23;6.03;;;3.13;;
15567;SDS011;7885;42.596;23.044;2023-05-29T12:53:50;7.17;;;3.40;;
15567;SDS011;7885;42.596;23.044;2023-05-29T12:56:20;6.43;;;3.73;;
15567;SDS011;7885;42.596;23.044;2023-05-29T12:58:47;8.20;;;3.50;;
15567;SDS011;7885;42.596;23.044;2023-05-29T13:01:14;4.20;;;3.10;;
15567;SDS011;7885;42.596;23.044;2023-05-29T13:03:41;20.30;;;5.07;;
15567;SDS011;7885;42.596;23.044;2023-05-29T13:06:08;24.03;;;5.07;;
15567;SDS011;7885;42.596;23.044;2023-05-29T13:08:37;8.97;;;3.57;;
15567;SDS011;7885;42.596;23.044;2023-05-29T13:11:04;10.30;;;3.20;;
15567;SDS011;7885;42.596;23.044;2023-05-29T13:13:31;11.37;;;3.13;;
15567;SDS011;7885;42.596;23.044;2023-05-29T13:15:57;25.37;;;5.73;;
15567;SDS011;7885;42.596;23.044;2023-05-29T13:18:24;23.13;;;5.73;;
15567;SDS011;7885;42.596;23.044;2023-05-29T13:20:51;38.17;;;8.23;;
15567;SDS011;7885;42.596;23.044;2023-05-29T13:23:17;34.07;;;7.93;;
15567;SDS011;7885;42.596;23.044;2023-05-29T13:25:45;17.97;;;5.43;;
15567;SDS011;7885;42.596;23.044;2023-05-29T13:28:14;9.33;;;4.10;;
15567;SDS011;7885;42.596;23.044;2023-05-29T13:30:41;15.33;;;4.47;;
15567;SDS011;7885;42.596;23.044;2023-05-29T13:33:08;6.00;;;3.13;;
15567;SDS011;7885;42.596;23.044;2023-05-29T13:35:35;4.83;;;3.40;;
15567;SDS011;7885;42.596;23.044;2023-05-29T13:38:01;4.57;;;3.40;;
15567;SDS011;7885;42.596;23.044;2023-05-29T13:40:28;5.30;;;3.30;;
15567;SDS011;7885;42.596;23.044;2023-05-29T13:42:56;5.60;;;3.40;;
15567;SDS011;7885;42.596;23.044;2023-05-29T13:45:23;5.90;;;3.00;;
15567;SDS011;7885;42.596;23.044;2023-05-29T13:47:52;5.73;;;3.50;;
15567;SDS011;7885;42.596;23.044;2023-05-29T13:50:19;4.57;;;3.33;;
15567;SDS011;7885;42.596;23.044;2023-05-29T13:52:48;5.67;;;3.53;;
15567;SDS011;7885;42.596;23.044;2023-05-29T13:55:15;6.07;;;3.30;;
15567;SDS011;7885;42.596;23.044;2023-05-29T13:57:42;5.17;;;3.33;;
15567;SDS011;7885;42.596;23.044;2023-05-29T14:00:11;7.27;;;3.17;;
15567;SDS011;7885;42.596;23.044;2023-05-29T14:02:38;5.57;;;3.53;;
15567;SDS011;7885;42.596;23.044;2023-05-29T14:05:05;8.20;;;3.40;;
15567;SDS011;7885;42.596;23.044;2023-05-29T14:07:32;4.23;;;3.20;;
15567;SDS011;7885;42.596;23.044;2023-05-29T14:09:59;5.73;;;3.43;;
15567;SDS011;7885;42.596;23.044;2023-05-29T14:12:26;6.83;;;3.13;;
15567;SDS011;7885;42.596;23.044;2023-05-29T14:14:53;8.77;;;4.00;;
15567;SDS011;7885;42.596;23.044;2023-05-29T14:17:21;7.27;;;3.40;;
15567;SDS011;7885;42.596;23.044;2023-05-29T14:19:47;3.60;;;2.90;;
15567;SDS011;7885;42.596;23.044;2023-05-29T14:22:14;3.60;;;3.23;;
15567;SDS011;7885;42.596;23.044;2023-05-29T14:24:41;3.27;;;2.97;;
15567;SDS011;7885;42.596;23.044;2023-05-29T14:27:08;6.23;;;3.07;;
15567;SDS011;7885;42.596;23.044;2023-05-29T14:29:34;5.37;;;2.97;;
15567;SDS011;7885;42.596;23.044;2023-05-29T14:32:01;5.27;;;3.27;;
15567;SDS011;7885;42.596;23.044;2023-05-29T14:34:29;5.33;;;3.43;;
15567;SDS011;7885;42.596;23.044;2023-05-29T14:36:56;6.33;;;3.10;;
15567;SDS011;7885;42.596;23.044;2023-05-29T14:39:22;3.23;;;2.90;;
15567;SDS011;7885;42.596;23.044;2023-05-29T14:41:49;4.03;;;3.20;;
15567;SDS011;7885;42.596;23.044;2023-05-29T14:44:16;3.33;;;2.90;;
15567;SDS011;7885;42.596;23.044;2023-05-29T14:46:43;3.27;;;2.80;;
15567;SDS011;7885;42.596;23.044;2023-05-29T14:49:09;6.20;;;3.20;;
15567;SDS011;7885;42.596;23.044;2023-05-29T14:51:37;3.10;;;2.80;;
15567;SDS011;7885;42.596;23.044;2023-05-29T14:54:05;3.87;;;3.10;;
15567;SDS011;7885;42.596;23.044;2023-05-29T14:56:34;7.87;;;3.23;;